Time,TemperatureF,DewpointF,PressureIn,WindDirection,WindDirectionDegrees,WindSpeedMPH,WindSpeedGustMPH,Humidity,HourlyPrecipIn,Conditions,Clouds,dailyrainin,SoftwareType,DateUTC
2013-02-26 03:21:00,28.0,27.0,-100.00,SSE,150,0.0,1.0,95,-99.99,,,-99.99,,2013-02-26 08:21:00,
2013-02-26 06:42:00,27.0,26.0,-100.00,SSW,205,1.0,6.0,96,-99.99,,,-99.99,,2013-02-26 11:42:00,
2013-02-26 06:53:00,27.0,26.0,-100.00,WNW,295,2.0,5.0,96,-99.99,,,-99.99,,2013-02-26 11:53:00,
2013-02-26 07:02:00,28.0,27.0,-100.00,WNW,290,2.0,5.0,96,-99.99,,,-99.99,,2013-02-26 12:02:00,
2013-02-26 07:11:00,28.0,27.0,-100.00,WNW,285,2.0,5.0,96,-99.99,,,-99.99,,2013-02-26 12:11:00,
2013-02-26 07:22:00,28.0,27.0,-100.00,WNW,300,2.0,6.0,96,-99.99,,,-99.99,,2013-02-26 12:22:00,
2013-02-26 07:32:00,27.0,26.0,-100.00,SSW,195,1.0,5.0,96,-99.99,,,-99.99,,2013-02-26 12:32:00,
2013-02-26 07:42:00,27.0,26.0,-100.00,SSW,205,0.0,2.0,96,-99.99,,,-99.99,,2013-02-26 12:42:00,
2013-02-26 07:52:00,26.0,25.0,-100.00,SSW,200,0.0,1.0,96,-99.99,,,-99.99,,2013-02-26 12:52:00,
2013-02-26 08:02:00,27.0,26.0,-100.00,SSW,210,0.0,1.0,96,-99.99,,,-99.99,,2013-02-26 13:02:00,
2013-02-26 08:11:00,27.0,26.0,-100.00,SSW,210,0.0,1.0,96,-99.99,,,-99.99,,2013-02-26 13:11:00,
2013-02-26 08:22:00,29.0,28.0,-100.00,SW,225,0.0,1.0,96,-99.99,,,-99.99,,2013-02-26 13:22:00,
2013-02-26 08:32:00,31.0,30.0,-100.00,NW,315,1.0,2.0,96,-99.99,,,-99.99,,2013-02-26 13:32:00,
2013-02-26 08:42:00,32.0,31.0,-100.00,North,350,1.0,3.0,96,-99.99,,,-99.99,,2013-02-26 13:42:00,
2013-02-26 08:52:00,33.0,32.0,-100.00,NE,35,1.0,3.0,94,-99.99,,,-99.99,,2013-02-26 13:52:00,
2013-02-26 09:02:00,34.0,33.0,-100.00,East,95,1.0,3.0,93,-99.99,,,-99.99,,2013-02-26 14:02:00,
2013-02-26 09:11:00,35.0,32.0,-100.00,South,190,1.0,3.0,89,-99.99,,,-99.99,,2013-02-26 14:11:00,
2013-02-26 09:22:00,36.0,33.0,-100.00,SW,225,1.0,2.0,88,-99.99,,,-99.99,,2013-02-26 14:22:00,
2013-02-26 09:32:00,37.0,33.0,-100.00,WSW,255,1.0,2.0,84,-99.99,,,-99.99,,2013-02-26 14:32:00,
2013-02-26 09:42:00,39.0,34.0,-100.00,South,180,0.0,2.0,81,-99.99,,,-99.99,,2013-02-26 14:42:00,
2013-02-26 09:52:00,39.0,33.0,-100.00,WSW,245,2.0,2.0,80,-99.99,,,-99.99,,2013-02-26 14:52:00,
2013-02-26 10:02:00,40.0,33.0,-100.00,SW,225,2.0,3.0,77,-99.99,,,-99.99,,2013-02-26 15:02:00,
2013-02-26 10:10:00,42.0,32.0,-100.00,West,275,1.0,3.0,67,-99.99,,,-99.99,,2013-02-26 15:10:00,
2013-02-26 10:12:00,40.0,33.0,-100.00,East,90,1.0,5.0,74,-99.99,,,-99.99,,2013-02-26 15:12:00,
2013-02-26 10:22:00,41.0,33.0,-100.00,SE,130,1.0,3.0,73,-99.99,,,-99.99,,2013-02-26 15:22:00,
2013-02-26 10:32:00,42.0,33.0,-100.00,East,90,2.0,5.0,70,-99.99,,,-99.99,,2013-02-26 15:32:00,
2013-02-26 10:42:00,42.0,32.0,-100.00,SSE,155,1.0,5.0,69,-99.99,,,-99.99,,2013-02-26 15:42:00,
2013-02-26 10:52:00,42.0,32.0,-100.00,West,275,1.0,3.0,67,-99.99,,,-99.99,,2013-02-26 15:52:00,
2013-02-26 11:02:00,42.0,32.0,-100.00,West,275,1.0,3.0,67,-99.99,,,-99.99,,2013-02-26 16:02:00,
2013-02-26 12:20:00,45.0,28.0,-100.00,WNW,290,3.0,12.0,51,-99.99,,,-99.99,,2013-02-26 17:20:00,
2013-02-26 13:02:00,45.0,28.0,-100.00,WNW,290,3.0,12.0,51,-99.99,,,-99.99,,2013-02-26 18:02:00,
2013-02-26 13:12:00,45.0,28.0,-100.00,WNW,290,3.0,12.0,51,-99.99,,,-99.99,,2013-02-26 18:12:00,
2013-02-26 13:52:00,44.0,27.0,-100.00,SW,230,3.0,9.0,50,-99.99,,,-99.99,,2013-02-26 18:52:00,
2013-02-26 16:10:00,40.0,27.0,-100.00,SW,235,1.0,9.0,59,-99.99,,,-99.99,,2013-02-26 21:10:00,
2013-02-26 16:51:00,40.0,27.0,-100.00,SW,235,1.0,9.0,59,-99.99,,,-99.99,,2013-02-26 21:51:00,
2013-02-26 17:01:00,40.0,27.0,-100.00,SW,235,1.0,9.0,59,-99.99,,,-99.99,,2013-02-26 22:01:00,
2013-02-26 18:11:00,37.0,28.0,-100.00,SE,135,0.0,5.0,69,-99.99,,,-99.99,,2013-02-26 23:11:00,
2013-02-26 18:21:00,37.0,28.0,-100.00,SE,135,0.0,5.0,69,-99.99,,,-99.99,,2013-02-26 23:21:00,
2013-02-26 18:32:00,36.0,29.0,-100.00,WNW,285,0.0,3.0,73,-99.99,,,-99.99,,2013-02-26 23:32:00,
2013-02-26 18:42:00,36.0,28.0,-100.00,ENE,75,1.0,3.0,73,-99.99,,,-99.99,,2013-02-26 23:42:00,
2013-02-26 18:52:00,36.0,28.0,-100.00,ENE,65,1.0,6.0,73,-99.99,,,-99.99,,2013-02-26 23:52:00,
2013-02-26 19:02:00,35.0,28.0,-100.00,NE,40,1.0,3.0,73,-99.99,,,-99.99,,2013-02-27 00:02:00,
2013-02-26 19:11:00,36.0,27.0,-100.00,SW,215,1.0,2.0,72,-99.99,,,-99.99,,2013-02-27 00:11:00,
2013-02-26 19:22:00,36.0,27.0,-100.00,West,270,1.0,6.0,72,-99.99,,,-99.99,,2013-02-27 00:22:00,
2013-02-26 20:32:00,35.0,28.0,-100.00,WSW,250,1.0,3.0,74,-99.99,,,-99.99,,2013-02-27 01:32:00,
2013-02-26 21:24:00,35.0,29.0,-100.00,SSW,195,1.0,2.0,76,-99.99,,,-99.99,,2013-02-27 02:24:00,
2013-02-26 21:32:00,35.0,29.0,-100.00,SSW,195,1.0,2.0,76,-99.99,,,-99.99,,2013-02-27 02:32:00,
2013-02-26 21:42:00,36.0,29.0,-100.00,NW,315,1.0,5.0,77,-99.99,,,-99.99,,2013-02-27 02:42:00,
2013-02-26 21:52:00,35.0,29.0,-100.00,SSW,210,1.0,3.0,77,-99.99,,,-99.99,,2013-02-27 02:52:00,
2013-02-26 22:02:00,35.0,29.0,-100.00,South,185,1.0,3.0,78,-99.99,,,-99.99,,2013-02-27 03:02:00,
2013-02-26 22:11:00,36.0,30.0,-100.00,South,175,1.0,5.0,78,-99.99,,,-99.99,,2013-02-27 03:11:00,
2013-02-26 22:22:00,36.0,30.0,-100.00,WNW,295,1.0,3.0,78,-99.99,,,-99.99,,2013-02-27 03:22:00,
2013-02-26 22:32:00,36.0,29.0,-100.00,ESE,110,1.0,5.0,77,-99.99,,,-99.99,,2013-02-27 03:32:00,
2013-02-26 22:42:00,36.0,30.0,-100.00,WSW,255,2.0,8.0,78,-99.99,,,-99.99,,2013-02-27 03:42:00,
2013-02-26 22:52:00,36.0,30.0,-100.00,NE,45,2.0,7.0,78,-99.99,,,-99.99,,2013-02-27 03:52:00,
2013-02-26 23:02:00,36.0,30.0,-100.00,NE,45,2.0,7.0,78,-99.99,,,-99.99,,2013-02-27 04:02:00,